sensor_id;sensor_type;location;lat;lon;timestamp;pressure;altitude;pressure_sealevel;temperature;humidity
9738;BME280;4908;47.446;13.900;2024-02-14T00:01:02;93382.38;;;-3.25;100.00
9738;BME280;4908;47.446;13.900;2024-02-14T00:03:29;93383.44;;;-3.26;100.00
9738;BME280;4908;47.446;13.900;2024-02-14T00:05:56;93391.63;;;-3.32;100.00
9738;BME280;4908;47.446;13.900;2024-02-14T00:08:23;93382.38;;;-3.25;100.00
9738;BME280;4908;47.446;13.900;2024-02-14T00:10:51;93390.34;;;-2.93;100.00
9738;BME280;4908;47.446;13.900;2024-02-14T00:13:19;93387.66;;;-2.69;100.00
9738;BME280;4908;47.446;13.900;2024-02-14T00:15:47;93383.19;;;-2.87;100.00
9738;BME280;4908;47.446;13.900;2024-02-14T00:18:14;93378.84;;;-2.97;100.00
9738;BME280;4908;47.446;13.900;2024-02-14T00:20:42;93387.78;;;-2.98;100.00
9738;BME280;4908;47.446;13.900;2024-02-14T00:23:09;93387.75;;;-3.16;100.00
9738;BME280;4908;47.446;13.900;2024-02-14T00:25:37;93379.59;;;-3.33;100.00
9738;BME280;4908;47.446;13.900;2024-02-14T00:28:05;93377.81;;;-3.38;100.00
9738;BME280;4908;47.446;13.900;2024-02-14T00:30:33;93379.16;;;-3.17;100.00
9738;BME280;4908;47.446;13.900;2024-02-14T00:33:01;93381.25;;;-3.19;100.00
9738;BME280;4908;47.446;13.900;2024-02-14T00:35:28;93385.50;;;-3.23;100.00
9738;BME280;4908;47.446;13.900;2024-02-14T00:37:55;93380.69;;;-3.16;100.00
9738;BME280;4908;47.446;13.900;2024-02-14T00:40:22;93380.09;;;-3.13;100.00
9738;BME280;4908;47.446;13.900;2024-02-14T00:42:49;93380.81;;;-3.26;100.00
9738;BME280;4908;47.446;13.900;2024-02-14T00:45:16;93385.13;;;-3.16;100.00
9738;BME280;4908;47.446;13.900;2024-02-14T00:47:45;93389.38;;;-3.20;100.00
9738;BME280;4908;47.446;13.900;2024-02-14T00:50:13;93391.94;;;-3.15;100.00
9738;BME280;4908;47.446;13.900;2024-02-14T00:52:40;93390.84;;;-3.33;100.00
9738;BME280;4908;47.446;13.900;2024-02-14T00:55:08;93395.63;;;-3.40;100.00
9738;BME280;4908;47.446;13.900;2024-02-14T00:57:35;93395.63;;;-3.40;100.00
9738;BME280;4908;47.446;13.900;2024-02-14T01:00:03;93393.09;;;-3.45;100.00
9738;BME280;4908;47.446;13.900;2024-02-14T01:02:31;93395.19;;;-3.47;100.00
9738;BME280;4908;47.446;13.900;2024-02-14T01:05:00;93392.09;;;-3.49;100.00
9738;BME280;4908;47.446;13.900;2024-02-14T01:07:27;93394.88;;;-3.64;100.00
9738;BME280;4908;47.446;13.900;2024-02-14T01:09:54;93388.84;;;-3.88;100.00
9738;BME280;4908;47.446;13.900;2024-02-14T01:12:21;93383.94;;;-3.71;100.00
9738;BME280;4908;47.446;13.900;2024-02-14T01:14:48;93387.91;;;-3.74;100.00
9738;BME280;4908;47.446;13.900;2024-02-14T01:17:16;93386.13;;;-3.78;100.00
9738;BME280;4908;47.446;13.900;2024-02-14T01:19:43;93389.19;;;-3.71;100.00
9738;BME280;4908;47.446;13.900;2024-02-14T01:22:11;93394.41;;;-3.71;100.00
9738;BME280;4908;47.446;13.900;2024-02-14T01:24:42;93391.44;;;-3.59;100.00
9738;BME280;4908;47.446;13.900;2024-02-14T01:27:09;93389.06;;;-3.37;100.00
9738;BME280;4908;47.446;13.900;2024-02-14T01:29:36;93391.97;;;-3.39;100.00
9738;BME280;4908;47.446;13.900;2024-02-14T01:32:04;93393.19;;;-3.55;100.00
9738;BME280;4908;47.446;13.900;2024-02-14T01:34:32;93395.31;;;-3.57;100.00
9738;BME280;4908;47.446;13.900;2024-02-14T01:36:59;93397.53;;;-3.69;100.00
9738;BME280;4908;47.446;13.900;2024-02-14T01:39:28;93392.88;;;-3.72;100.00
9738;BME280;4908;47.446;13.900;2024-02-14T01:41:55;93394.00;;;-3.36;100.00
9738;BME280;4908;47.446;13.900;2024-02-14T01:44:22;93394.50;;;-3.34;100.00
9738;BME280;4908;47.446;13.900;2024-02-14T01:46:49;93395.63;;;-3.40;100.00
9738;BME280;4908;47.446;13.900;2024-02-14T01:49:16;93390.56;;;-3.55;100.00
9738;BME280;4908;47.446;13.900;2024-02-14T01:51:45;93388.84;;;-3.65;100.00
9738;BME280;4908;47.446;13.900;2024-02-14T01:54:13;93393.44;;;-3.75;100.00
9738;BME280;4908;47.446;13.900;2024-02-14T01:56:43;93383.19;;;-3.48;100.00
9738;BME280;4908;47.446;13.900;2024-02-14T01:59:11;93391.53;;;-3.46;100.00
9738;BME280;4908;47.446;13.900;2024-02-14T02:01:38;93390.63;;;-3.36;100.00
9738;BME280;4908;47.446;13.900;2024-02-14T02:04:05;93387.84;;;-3.45;100.00
9738;BME280;4908;47.446;13.900;2024-02-14T02:06:33;93380.16;;;-3.84;100.00
9738;BME280;4908;47.446;13.900;2024-02-14T02:09:00;93387.81;;;-4.16;100.00
9738;BME280;4908;47.446;13.900;2024-02-14T02:11:28;93380.31;;;-4.27;100.00
9738;BME280;4908;47.446;13.900;2024-02-14T02:13:57;93383.13;;;-4.19;100.00
9738;BME280;4908;47.446;13.900;2024-02-14T02:16:25;93384.91;;;-4.14;100.00
9738;BME280;4908;47.446;13.900;2024-02-14T02:18:52;93379.13;;;-4.11;100.00
9738;BME280;4908;47.446;13.900;2024-02-14T02:21:20;93377.94;;;-3.95;100.00
9738;BME280;4908;47.446;13.900;2024-02-14T02:23:50;93380.09;;;-4.02;100.00
9738;BME280;4908;47.446;13.900;2024-02-14T02:26:17;93379.09;;;-4.06;100.00
9738;BME280;4908;47.446;13.900;2024-02-14T02:28:44;93375.22;;;-3.85;100.00
9738;BME280;4908;47.446;13.900;2024-02-14T02:31:12;93375.63;;;-4.02;100.00
9738;BME280;4908;47.446;13.900;2024-02-14T02:33:39;93378.38;;;-3.88;100.00
9738;BME280;4908;47.446;13.900;2024-02-14T02:36:06;93374.38;;;-4.04;100.00
9738;BME280;4908;47.446;13.900;2024-02-14T02:38:35;93382.59;;;-3.92;100.00
9738;BME280;4908;47.446;13.900;2024-02-14T02:41:05;93386.41;;;-3.80;100.00
9738;BME280;4908;47.446;13.900;2024-02-14T02:43:33;93381.84;;;-3.69;100.00
9738;BME280;4908;47.446;13.900;2024-02-14T02:46:01;93382.97;;;-3.75;100.00
9738;BME280;4908;47.446;13.900;2024-02-14T02:48:28;93391.06;;;-3.77;100.00
9738;BME280;4908;47.446;13.900;2024-02-14T02:50:57;93392.66;;;-3.76;100.00
9738;BME280;4908;47.446;13.900;2024-02-14T02:53:24;93386.38;;;-4.03;100.00
9738;BME280;4908;47.446;13.900;2024-02-14T02:55:51;93393.53;;;-4.14;100.00
9738;BME280;4908;47.446;13.900;2024-02-14T02:58:21;93393.28;;;-4.17;100.00
9738;BME280;4908;47.446;13.900;2024-02-14T03:00:48;93384.91;;;-4.14;100.00
9738;BME280;4908;47.446;13.900;2024-02-14T03:03:15;93391.69;;;-4.13;100.00
9738;BME280;4908;47.446;13.900;2024-02-14T03:05:43;93401.13;;;-4.17;100.00
9738;BME280;4908;47.446;13.900;2024-02-14T03:08:11;93399.03;;;-4.15;100.00
9738;BME280;4908;47.446;13.900;2024-02-14T03:10:41;93393.03;;;-4.16;100.00
9738;BME280;4908;47.446;13.900;2024-02-14T03:13:10;93398.34;;;-3.97;100.00
9738;BME280;4908;47.446;13.900;2024-02-14T03:15:40;93400.53;;;-3.81;100.00
9738;BME280;4908;47.446;13.900;2024-02-14T03:18:23;93408.22;;;-3.89;100.00
9738;BME280;4908;47.446;13.900;2024-02-14T03:20:50;93408.59;;;-4.01;100.00
9738;BME280;4908;47.446;13.900;2024-02-14T03:23:19;93406.78;;;-4.05;100.00
9738;BME280;4908;47.446;13.900;2024-02-14T03:25:46;93403.66;;;-4.07;100.00
9738;BME280;4908;47.446;13.900;2024-02-14T03:28:13;93401.22;;;-4.27;100.00
9738;BME280;4908;47.446;13.900;2024-02-14T03:30:42;93406.03;;;-4.39;100.00
9738;BME280;4908;47.446;13.900;2024-02-14T03:33:09;93406.63;;;-4.47;100.00
9738;BME280;4908;47.446;13.900;2024-02-14T03:35:36;93414.06;;;-4.65;100.00
9738;BME280;4908;47.446;13.900;2024-02-14T03:38:04;93417.94;;;-4.57;100.00
9738;BME280;4908;47.446;13.900;2024-02-14T03:40:34;93417.59;;;-4.50;100.00
9738;BME280;4908;47.446;13.900;2024-02-14T03:43:02;93418.13;;;-4.48;100.00
9738;BME280;4908;47.446;13.900;2024-02-14T03:45:29;93413.97;;;-4.49;100.00
9738;BME280;4908;47.446;13.900;2024-02-14T03:47:57;93416.56;;;-4.49;100.00
9738;BME280;4908;47.446;13.900;2024-02-14T03:50:25;93415.50;;;-4.48;100.00
9738;BME280;4908;47.446;13.900;2024-02-14T03:52:52;93426.75;;;-4.48;100.00
9738;BME280;4908;47.446;13.900;2024-02-14T03:55:20;93420.50;;;-4.18;100.00
9738;BME280;4908;47.446;13.900;2024-02-14T03:57:48;93431.84;;;-3.99;100.00
9738;BME280;4908;47.446;13.900;2024-02-14T04:00:17;93426.91;;;-4.06;100.00
9738;BME280;4908;47.446;13.900;2024-02-14T04:02:44;93430.41;;;-4.15;100.00
9738;BME280;4908;47.446;13.900;2024-02-14T04:05:15;93426.28;;;-4.21;100.00
9738;BME280;4908;47.446;13.900;2024-02-14T04:07:43;93437.78;;;-4.22;100.00
9738;BME280;4908;47.446;13.900;2024-02-14T04:10:14;93430.81;;;-4.03;100.00
9738;BME280;4908;47.446;13.900;2024-02-14T04:12:42;93429.00;;;-4.31;100.00
9738;BME280;4908;47.446;13.900;2024-02-14T04:15:09;93431.03;;;-3.95;100.00
9738;BME280;4908;47.446;13.900;2024-02-14T04:17:36;93421.78;;;-3.87;100.00
9738;BME280;4908;47.446;13.900;2024-02-14T04:20:04;93426.47;;;-3.84;100.00
9738;BME280;4908;47.446;13.900;2024-02-14T04:22:33;93429.69;;;-3.92;100.00
9738;BME280;4908;47.446;13.900;2024-02-14T04:25:00;93426.47;;;-3.84;100.00
9738;BME280;4908;47.446;13.900;2024-02-14T04:27:27;93430.69;;;-3.88;100.00
9738;BME280;4908;47.446;13.900;2024-02-14T04:29:55;93426.94;;;-3.77;100.00
9738;BME280;4908;47.446;13.900;2024-02-14T04:32:22;93424.31;;;-3.77;100.00
9738;BME280;4908;47.446;13.900;2024-02-14T04:34:50;93430.59;;;-3.78;100.00
9738;BME280;4908;47.446;13.900;2024-02-14T04:37:17;93436.78;;;-3.69;100.00
9738;BME280;4908;47.446;13.900;2024-02-14T04:39:46;93434.63;;;-3.62;100.00
9738;BME280;4908;47.446;13.900;2024-02-14T04:42:14;93431.53;;;-3.69;100.00
9738;BME280;4908;47.446;13.900;2024-02-14T04:44:41;93426.28;;;-3.64;100.00
9738;BME280;4908;47.446;13.900;2024-02-14T04:47:08;93427.16;;;-3.74;100.00
9738;BME280;4908;47.446;13.900;2024-02-14T04:49:36;93427.44;;;-4.04;100.00
9738;BME280;4908;47.446;13.900;2024-02-14T04:52:03;93426.91;;;-4.01;100.00
9738;BME280;4908;47.446;13.900;2024-02-14T04:54:31;93426.09;;;-4.01;100.00
9738;BME280;4908;47.446;13.900;2024-02-14T04:56:59;93419.63;;;-3.80;100.00
9738;BME280;4908;47.446;13.900;2024-02-14T04:59:27;93418.19;;;-3.96;100.00
9738;BME280;4908;47.446;13.900;2024-02-14T05:01:54;93414.56;;;-4.00;100.00
9738;BME280;4908;47.446;13.900;2024-02-14T05:04:22;93416.56;;;-3.87;100.00
9738;BME280;4908;47.446;13.900;2024-02-14T05:06:49;93410.41;;;-3.49;100.00
9738;BME280;4908;47.446;13.900;2024-02-14T05:09:16;93409.91;;;-3.51;100.00
9738;BME280;4908;47.446;13.900;2024-02-14T05:11:43;93406.88;;;-3.63;100.00
9738;BME280;4908;47.446;13.900;2024-02-14T05:14:12;93408.69;;;-3.58;100.00
9738;BME280;4908;47.446;13.900;2024-02-14T05:16:40;93408.00;;;-3.69;100.00
9738;BME280;4908;47.446;13.900;2024-02-14T05:19:07;93399.41;;;-3.75;100.00
9738;BME280;4908;47.446;13.900;2024-02-14T05:21:35;93406.00;;;-3.77;100.00
9738;BME280;4908;47.446;13.900;2024-02-14T05:24:03;93405.03;;;-3.86;100.00
9738;BME280;4908;47.446;13.900;2024-02-14T05:26:30;93413.59;;;-3.81;100.00
9738;BME280;4908;47.446;13.900;2024-02-14T05:28:57;93400.78;;;-3.77;100.00
9738;BME280;4908;47.446;13.900;2024-02-14T05:31:42;93406.78;;;-3.77;100.00
9738;BME280;4908;47.446;13.900;2024-02-14T05:34:10;93403.50;;;-3.63;100.00
9738;BME280;4908;47.446;13.900;2024-02-14T05:36:37;93398.78;;;-3.61;100.00
9738;BME280;4908;47.446;13.900;2024-02-14T05:39:04;93406.88;;;-3.63;100.00
9738;BME280;4908;47.446;13.900;2024-02-14T05:41:33;93408.91;;;-3.55;100.00
9738;BME280;4908;47.446;13.900;2024-02-14T05:44:01;93404.66;;;-3.51;100.00
9738;BME280;4908;47.446;13.900;2024-02-14T05:46:30;93418.97;;;-3.43;100.00
9738;BME280;4908;47.446;13.900;2024-02-14T05:48:57;93411.19;;;-3.25;100.00
9738;BME280;4908;47.446;13.900;2024-02-14T05:51:24;93411.41;;;-3.45;100.00
9738;BME280;4908;47.446;13.900;2024-02-14T05:53:51;93414.25;;;-3.41;100.00
9738;BME280;4908;47.446;13.900;2024-02-14T05:56:18;93428.34;;;-3.37;100.00
9738;BME280;4908;47.446;13.900;2024-02-14T05:58:45;93420.84;;;-3.44;100.00
9738;BME280;4908;47.446;13.900;2024-02-14T06:01:12;93425.16;;;-3.34;100.00
9738;BME280;4908;47.446;13.900;2024-02-14T06:03:42;93424.03;;;-3.28;100.00
9738;BME280;4908;47.446;13.900;2024-02-14T06:06:09;93423.59;;;-2.93;100.00
9738;BME280;4908;47.446;13.900;2024-02-14T06:08:36;93430.22;;;-3.19;100.00
9738;BME280;4908;47.446;13.900;2024-02-14T06:11:04;93431.41;;;-3.30;100.00
9738;BME280;4908;47.446;13.900;2024-02-14T06:13:31;93433.03;;;-3.34;100.00
9738;BME280;4908;47.446;13.900;2024-02-14T06:15:58;93423.31;;;-3.34;100.00
9738;BME280;4908;47.446;13.900;2024-02-14T06:18:25;93435.19;;;-3.41;100.00
9738;BME280;4908;47.446;13.900;2024-02-14T06:20:53;93424.16;;;-3.38;100.00
9738;BME280;4908;47.446;13.900;2024-02-14T06:23:20;93433.13;;;-3.44;100.00
9738;BME280;4908;47.446;13.900;2024-02-14T06:25:47;93435.75;;;-3.21;100.00
9738;BME280;4908;47.446;13.900;2024-02-14T06:28:14;93439.81;;;-3.10;100.00
9738;BME280;4908;47.446;13.900;2024-02-14T06:30:41;93446.72;;;-3.19;100.00
9738;BME280;4908;47.446;13.900;2024-02-14T06:33:08;93454.78;;;-3.15;100.00
9738;BME280;4908;47.446;13.900;2024-02-14T06:35:35;93447.78;;;-3.20;100.00
9738;BME280;4908;47.446;13.900;2024-02-14T06:38:04;93454.13;;;-3.26;100.00
9738;BME280;4908;47.446;13.900;2024-02-14T06:40:31;93456.97;;;-3.46;100.00
9738;BME280;4908;47.446;13.900;2024-02-14T06:42:58;93461.31;;;-3.65;100.00
9738;BME280;4908;47.446;13.900;2024-02-14T06:45:26;93457.56;;;-3.54;100.00
9738;BME280;4908;47.446;13.900;2024-02-14T06:47:53;93457.34;;;-3.34;100.00
9738;BME280;4908;47.446;13.900;2024-02-14T06:50:20;93457.34;;;-3.34;100.00
9738;BME280;4908;47.446;13.900;2024-02-14T06:52:47;93463.16;;;-3.37;100.00
9738;BME280;4908;47.446;13.900;2024-02-14T06:55:16;93458.53;;;-3.45;100.00
9738;BME280;4908;47.446;13.900;2024-02-14T06:57:43;93467.09;;;-3.39;100.00
9738;BME280;4908;47.446;13.900;2024-02-14T07:00:11;93468.38;;;-3.37;100.00
9738;BME280;4908;47.446;13.900;2024-02-14T07:02:38;93476.28;;;-3.42;100.00
9738;BME280;4908;47.446;13.900;2024-02-14T07:05:06;93470.44;;;-3.34;100.00
9738;BME280;4908;47.446;13.900;2024-02-14T07:07:38;93478.06;;;-3.37;100.00
9738;BME280;4908;47.446;13.900;2024-02-14T07:10:06;93476.63;;;-3.48;100.00
9738;BME280;4908;47.446;13.900;2024-02-14T07:12:34;93482.22;;;-3.60;100.00
9738;BME280;4908;47.446;13.900;2024-02-14T07:15:01;93477.81;;;-3.65;100.00
9738;BME280;4908;47.446;13.900;2024-02-14T07:17:29;93477.28;;;-3.38;100.00
9738;BME280;4908;47.446;13.900;2024-02-14T07:19:56;93480.63;;;-3.56;100.00
9738;BME280;4908;47.446;13.900;2024-02-14T07:22:23;93486.88;;;-3.52;100.00
9738;BME280;4908;47.446;13.900;2024-02-14T07:24:50;93482.06;;;-3.45;100.00
9738;BME280;4908;47.446;13.900;2024-02-14T07:27:19;93472.50;;;-3.31;100.00
9738;BME280;4908;47.446;13.900;2024-02-14T07:29:48;93485.09;;;-3.09;100.00
9738;BME280;4908;47.446;13.900;2024-02-14T07:32:15;93481.31;;;-2.80;100.00
9738;BME280;4908;47.446;13.900;2024-02-14T07:34:42;93481.81;;;-2.78;100.00
9738;BME280;4908;47.446;13.900;2024-02-14T07:37:09;93481.16;;;-2.64;100.00
9738;BME280;4908;47.446;13.900;2024-02-14T07:39:36;93483.84;;;-2.32;100.00
9738;BME280;4908;47.446;13.900;2024-02-14T07:42:04;93483.78;;;-2.46;100.00
9738;BME280;4908;47.446;13.900;2024-02-14T07:44:31;93480.31;;;-2.41;100.00
9738;BME280;4908;47.446;13.900;2024-02-14T07:46:59;93488.69;;;-2.39;100.00
9738;BME280;4908;47.446;13.900;2024-02-14T07:49:26;93498.31;;;-2.16;100.00
9738;BME280;4908;47.446;13.900;2024-02-14T07:51:53;93492.91;;;-2.06;100.00
9738;BME280;4908;47.446;13.900;2024-02-14T07:54:20;93503.69;;;-2.26;100.00
9738;BME280;4908;47.446;13.900;2024-02-14T07:56:47;93506.22;;;-2.21;100.00
9738;BME280;4908;47.446;13.900;2024-02-14T07:59:14;93500.78;;;-2.25;100.00
9738;BME280;4908;47.446;13.900;2024-02-14T08:01:41;93508.31;;;-2.18;100.00
9738;BME280;4908;47.446;13.900;2024-02-14T08:04:10;93505.63;;;-2.32;100.00
9738;BME280;4908;47.446;13.900;2024-02-14T08:06:37;93501.47;;;-2.19;100.00
9738;BME280;4908;47.446;13.900;2024-02-14T08:09:04;93508.66;;;-2.06;100.00
9738;BME280;4908;47.446;13.900;2024-02-14T08:11:35;93509.72;;;-2.07;100.00
9738;BME280;4908;47.446;13.900;2024-02-14T08:14:02;93506.69;;;-1.82;100.00
9738;BME280;4908;47.446;13.900;2024-02-14T08:16:30;93508.78;;;-1.79;100.00
9738;BME280;4908;47.446;13.900;2024-02-14T08:18:57;93512.16;;;-1.78;100.00
9738;BME280;4908;47.446;13.900;2024-02-14T08:21:27;93512.94;;;-1.46;100.00
9738;BME280;4908;47.446;13.900;2024-02-14T08:23:54;93508.47;;;-1.32;100.00
9738;BME280;4908;47.446;13.900;2024-02-14T08:26:21;93506.00;;;-1.10;100.00
9738;BME280;4908;47.446;13.900;2024-02-14T08:28:48;93511.25;;;-1.23;100.00
9738;BME280;4908;47.446;13.900;2024-02-14T08:31:15;93513.06;;;-1.24;100.00
9738;BME280;4908;47.446;13.900;2024-02-14T08:33:42;93509.47;;;-1.28;100.00
9738;BME280;4908;47.446;13.900;2024-02-14T08:36:09;93507.53;;;-1.22;100.00
9738;BME280;4908;47.446;13.900;2024-02-14T08:38:38;93500.84;;;-1.15;100.00
9738;BME280;4908;47.446;13.900;2024-02-14T08:41:05;93501.31;;;-1.13;100.00
9738;BME280;4908;47.446;13.900;2024-02-14T08:43:33;93504.41;;;-1.11;100.00
9738;BME280;4908;47.446;13.900;2024-02-14T08:46:00;93495.38;;;-1.05;100.00
9738;BME280;4908;47.446;13.900;2024-02-14T08:48:29;93506.53;;;-1.26;100.00
9738;BME280;4908;47.446;13.900;2024-02-14T08:51:00;93497.25;;;-1.19;100.00
9738;BME280;4908;47.446;13.900;2024-02-14T08:53:29;93494.50;;;-1.14;100.00
9738;BME280;4908;47.446;13.900;2024-02-14T08:55:57;93497.31;;;-1.10;100.00
9738;BME280;4908;47.446;13.900;2024-02-14T08:58:24;93498.97;;;-1.01;100.00
9738;BME280;4908;47.446;13.900;2024-02-14T09:00:51;93499.59;;;-0.76;100.00
9738;BME280;4908;47.446;13.900;2024-02-14T09:03:19;93496.81;;;-0.44;100.00
9738;BME280;4908;47.446;13.900;2024-02-14T09:05:46;93497.94;;;-0.23;100.00
9738;BME280;4908;47.446;13.900;2024-02-14T09:08:14;93486.63;;;0.12;100.00
9738;BME280;4908;47.446;13.900;2024-02-14T09:10:41;93496.59;;;0.24;100.00
9738;BME280;4908;47.446;13.900;2024-02-14T09:13:09;93495.19;;;0.40;100.00
9738;BME280;4908;47.446;13.900;2024-02-14T09:15:36;93479.47;;;0.57;100.00
9738;BME280;4908;47.446;13.900;2024-02-14T09:18:04;93492.47;;;0.75;100.00
9738;BME280;4908;47.446;13.900;2024-02-14T09:20:31;93494.53;;;0.87;100.00
9738;BME280;4908;47.446;13.900;2024-02-14T09:22:58;93487.97;;;1.07;100.00
9738;BME280;4908;47.446;13.900;2024-02-14T09:25:25;93495.41;;;1.05;100.00
9738;BME280;4908;47.446;13.900;2024-02-14T09:27:52;93494.69;;;0.90;100.00
9738;BME280;4908;47.446;13.900;2024-02-14T09:30:21;93494.09;;;0.93;100.00
9738;BME280;4908;47.446;13.900;2024-02-14T09:32:48;93489.44;;;1.38;100.00
9738;BME280;4908;47.446;13.900;2024-02-14T09:35:16;93490.53;;;1.46;100.00
9738;BME280;4908;47.446;13.900;2024-02-14T09:37:43;93487.81;;;1.68;100.00
9738;BME280;4908;47.446;13.900;2024-02-14T09:40:11;93490.94;;;1.87;100.00
9738;BME280;4908;47.446;13.900;2024-02-14T09:42:44;93483.19;;;2.16;100.00
9738;BME280;4908;47.446;13.900;2024-02-14T09:45:12;93481.00;;;2.18;100.00
9738;BME280;4908;47.446;13.900;2024-02-14T09:47:40;93479.78;;;2.33;100.00
9738;BME280;4908;47.446;13.900;2024-02-14T09:50:09;93483.19;;;2.50;100.00
9738;BME280;4908;47.446;13.900;2024-02-14T09:52:38;93482.19;;;2.81;100.00
9738;BME280;4908;47.446;13.900;2024-02-14T09:55:07;93476.34;;;3.04;100.00
9738;BME280;4908;47.446;13.900;2024-02-14T09:57:37;93477.06;;;3.22;100.00
9738;BME280;4908;47.446;13.900;2024-02-14T10:00:09;93477.06;;;3.22;100.00
9738;BME280;4908;47.446;13.900;2024-02-14T10:02:37;93477.69;;;3.19;100.00
9738;BME280;4908;47.446;13.900;2024-02-14T10:05:06;93468.94;;;3.27;100.00
9738;BME280;4908;47.446;13.900;2024-02-14T10:07:40;93476.38;;;3.42;100.00
9738;BME280;4908;47.446;13.900;2024-02-14T10:10:07;93470.28;;;3.41;100.00
9738;BME280;4908;47.446;13.900;2024-02-14T10:12:35;93468.84;;;3.73;100.00
9738;BME280;4908;47.446;13.900;2024-02-14T10:15:05;93476.41;;;3.83;100.00
9738;BME280;4908;47.446;13.900;2024-02-14T10:17:33;93468.75;;;4.11;100.00
9738;BME280;4908;47.446;13.900;2024-02-14T10:20:01;93464.94;;;4.00;100.00
9738;BME280;4908;47.446;13.900;2024-02-14T10:22:35;93465.31;;;4.10;100.00
9738;BME280;4908;47.446;13.900;2024-02-14T10:25:03;93458.22;;;4.02;100.00
9738;BME280;4908;47.446;13.900;2024-02-14T10:27:35;93457.03;;;3.71;100.00
9738;BME280;4908;47.446;13.900;2024-02-14T10:30:04;93463.63;;;3.85;100.00
9738;BME280;4908;47.446;13.900;2024-02-14T10:32:34;93464.31;;;4.23;100.00
9738;BME280;4908;47.446;13.900;2024-02-14T10:35:04;93457.28;;;4.39;100.00
9738;BME280;4908;47.446;13.900;2024-02-14T10:37:35;93454.72;;;4.31;100.00
9738;BME280;4908;47.446;13.900;2024-02-14T10:40:03;93453.09;;;4.38;100.00
9738;BME280;4908;47.446;13.900;2024-02-14T10:42:32;93452.00;;;4.39;100.00
9738;BME280;4908;47.446;13.900;2024-02-14T10:44:59;93456.72;;;4.67;100.00
9738;BME280;4908;47.446;13.900;2024-02-14T10:47:30;93453.63;;;4.65;100.00
9738;BME280;4908;47.446;13.900;2024-02-14T10:50:01;93458.13;;;4.85;100.00
9738;BME280;4908;47.446;13.900;2024-02-14T10:52:32;93451.13;;;4.80;100.00
9738;BME280;4908;47.446;13.900;2024-02-14T10:55:02;93446.88;;;5.12;100.00
9738;BME280;4908;47.446;13.900;2024-02-14T10:57:30;93436.03;;;5.17;100.00
9738;BME280;4908;47.446;13.900;2024-02-14T11:00:00;93434.28;;;5.09;100.00
9738;BME280;4908;47.446;13.900;2024-02-14T11:02:28;93437.63;;;5.30;100.00
9738;BME280;4908;47.446;13.900;2024-02-14T11:04:56;93432.84;;;5.35;100.00
9738;BME280;4908;47.446;13.900;2024-02-14T11:07:23;93429.63;;;5.06;100.00
9738;BME280;4908;47.446;13.900;2024-02-14T11:10:04;93422.97;;;5.00;100.00
9738;BME280;4908;47.446;13.900;2024-02-14T11:12:33;93423.19;;;4.95;100.00
9738;BME280;4908;47.446;13.900;2024-02-14T11:15:09;93422.63;;;4.89;100.00
9738;BME280;4908;47.446;13.900;2024-02-14T11:17:36;93420.56;;;5.07;100.00
9738;BME280;4908;47.446;13.900;2024-02-14T11:20:16;93417.81;;;5.52;100.00
9738;BME280;4908;47.446;13.900;2024-02-14T11:22:53;93413.63;;;6.02;100.00
9738;BME280;4908;47.446;13.900;2024-02-14T11:25:28;93410.03;;;6.22;100.00
9738;BME280;4908;47.446;13.900;2024-02-14T11:27:56;93411.34;;;6.28;100.00
9738;BME280;4908;47.446;13.900;2024-02-14T11:30:28;93408.81;;;6.48;100.00
9738;BME280;4908;47.446;13.900;2024-02-14T11:32:55;93399.91;;;6.83;100.00
9738;BME280;4908;47.446;13.900;2024-02-14T11:35:23;93395.69;;;7.29;100.00
9738;BME280;4908;47.446;13.900;2024-02-14T11:37:51;93403.59;;;7.91;78.78
9738;BME280;4908;47.446;13.900;2024-02-14T11:40:19;93399.94;;;7.99;73.94
9738;BME280;4908;47.446;13.900;2024-02-14T11:42:48;93396.38;;;7.92;71.33
9738;BME280;4908;47.446;13.900;2024-02-14T11:45:15;93397.41;;;7.37;75.38
9738;BME280;4908;47.446;13.900;2024-02-14T11:47:43;93396.63;;;7.21;79.87
9738;BME280;4908;47.446;13.900;2024-02-14T11:50:12;93401.53;;;7.19;81.16
9738;BME280;4908;47.446;13.900;2024-02-14T11:52:39;93412.53;;;7.02;81.01
9738;BME280;4908;47.446;13.900;2024-02-14T11:55:07;93405.41;;;7.06;80.58
9738;BME280;4908;47.446;13.900;2024-02-14T11:57:35;93409.94;;;7.21;79.76
9738;BME280;4908;47.446;13.900;2024-02-14T12:00:06;93410.03;;;6.78;78.79
9738;BME280;4908;47.446;13.900;2024-02-14T12:02:34;93402.94;;;6.54;82.26
9738;BME280;4908;47.446;13.900;2024-02-14T12:05:02;93413.22;;;6.99;75.52
9738;BME280;4908;47.446;13.900;2024-02-14T12:07:30;93405.66;;;7.01;76.66
9738;BME280;4908;47.446;13.900;2024-02-14T12:09:58;93416.06;;;7.06;84.20
9738;BME280;4908;47.446;13.900;2024-02-14T12:12:25;93414.41;;;7.17;84.06
9738;BME280;4908;47.446;13.900;2024-02-14T12:14:53;93411.09;;;7.20;79.92
9738;BME280;4908;47.446;13.900;2024-02-14T12:17:21;93395.78;;;7.17;81.68
9738;BME280;4908;47.446;13.900;2024-02-14T12:19:48;93400.59;;;7.27;69.08
9738;BME280;4908;47.446;13.900;2024-02-14T12:22:17;93394.50;;;7.27;79.73
9738;BME280;4908;47.446;13.900;2024-02-14T12:24:45;93401.28;;;7.24;83.68
9738;BME280;4908;47.446;13.900;2024-02-14T12:27:13;93396.59;;;7.52;78.66
9738;BME280;4908;47.446;13.900;2024-02-14T12:29:40;93401.63;;;7.38;78.11
9738;BME280;4908;47.446;13.900;2024-02-14T12:32:08;93391.13;;;7.45;78.09
9738;BME280;4908;47.446;13.900;2024-02-14T12:34:37;93401.19;;;7.52;74.77
9738;BME280;4908;47.446;13.900;2024-02-14T12:37:04;93389.22;;;7.61;74.17
9738;BME280;4908;47.446;13.900;2024-02-14T12:39:33;93392.31;;;7.63;84.48
9738;BME280;4908;47.446;13.900;2024-02-14T12:42:01;93391.22;;;7.83;75.75
9738;BME280;4908;47.446;13.900;2024-02-14T12:44:29;93386.47;;;7.92;77.65
9738;BME280;4908;47.446;13.900;2024-02-14T12:46:56;93384.75;;;8.38;73.85
9738;BME280;4908;47.446;13.900;2024-02-14T12:49:24;93386.72;;;9.02;73.46
9738;BME280;4908;47.446;13.900;2024-02-14T12:51:53;93383.00;;;10.08;56.80
9738;BME280;4908;47.446;13.900;2024-02-14T12:54:23;93378.69;;;10.26;56.72
9738;BME280;4908;47.446;13.900;2024-02-14T12:56:50;93387.41;;;10.23;55.43
9738;BME280;4908;47.446;13.900;2024-02-14T12:59:18;93380.53;;;9.95;56.60
9738;BME280;4908;47.446;13.900;2024-02-14T13:01:45;93383.00;;;9.55;56.17
9738;BME280;4908;47.446;13.900;2024-02-14T13:04:13;93384.84;;;9.51;59.61
9738;BME280;4908;47.446;13.900;2024-02-14T13:06:42;93366.44;;;9.72;60.01
9738;BME280;4908;47.446;13.900;2024-02-14T13:09:10;93367.78;;;10.78;52.83